Effective Sunday, March 17, 2024, the National Weather Service National Data Buoy Center will discontinue its Dial-A-Buoy Interactive Voice Response system. For more information, see Service Change Notice 24-06 (PDF).

Station WCXA2 - Ward Cove, AK Image indicating link to RSS feed of recent meteorological observations for station WCXA2


Conditions at WCXA2 as of
(7:57 am AKST)
1657 GMT on 02/24/2024:
     

Click on the graph icon in the table below to see a time series plot of the last five days of that observation.

5-day plot - Wind Direction Wind Direction (WDIR): N ( 360 deg true )
5-day plot - Wind Speed Wind Speed (WSPD): 1 kts
5-day plot - Wind Gust Wind Gust (GST): 2 kts
5-day plot - Air Temperature Air Temperature (ATMP): 35.6 °F
5-day plot - Wind Speed at 10 Meters Wind Speed at 10 meters (WSPD10M): 2 kts
5-day plot - Wind Speed at 20 Meters Wind Speed at 20 meters (WSPD20M): 2 kts
5-day plot -  Wind Speed, Wind Gust and Atmospheric Pressure Combined plot of Wind Speed, Gust, and Air Pressure
Previous observations
TIME
(AKST)
5-day plot - Wind Direction
WDIR
 
5-day plot - Wind Speed
WSPD
kts
5-day plot - Wind Gust
GST
kts
5-day plot - Wave Height
WVHT
ft
5-day plot - Dominant Wave Period
DPD
sec
5-day plot - Average Wave Period
APD
sec
5-day plot - Mean Wave Direction
MWD
 
5-day plot - Atmospheric Pressure
PRES
in
5-day plot - Pressure Tendency
PTDY
in
5-day plot - Air Temperature
ATMP
°F
5-day plot - Water Temperature
WTMP
°F
5-day plot - Dew Point
DEWP
°F
5-day plot - Salinity
SAL
psu
5-day plot - Visibility
VIS
nmi
5-day plot - Tide (above MLLW)
TIDE
ft
2024-02-24 07:48 am E 1 2------ 35.2-----
2024-02-24 07:40 am E 1 2------ 35.2-----
2024-02-24 07:28 am NE 3 3------ 35.1-----
2024-02-24 07:19 amENE 2 3------ 35.2-----
2024-02-24 07:07 amNNE 2 2------ 35.2-----
2024-02-24 06:54 am NE 2 4------ 35.2-----
2024-02-24 06:44 am N 2 3------ 35.2-----
2024-02-24 06:33 am N 2 3------ 35.2-----
2024-02-24 06:23 amNNE 3 4------ 35.2-----
2024-02-24 06:13 am NE 2 5------ 35.6-----
2024-02-24 06:03 am NE 4 6------ 35.2-----
2024-02-24 05:53 am NE 5 7------ 34.9-----
2024-02-24 05:43 am NE 5 6------ 35.1-----
2024-02-24 05:33 amENE 5 6------ 35.1-----
2024-02-24 05:23 am NE 5 6------ 34.9-----
2024-02-24 05:13 am NE 5 6------ 34.9-----
2024-02-24 05:03 amENE 5 6------ 34.9-----
2024-02-24 04:53 am NE 4 5------ 35.1-----
2024-02-24 04:43 am NE 4 5------ 35.1-----
2024-02-24 04:33 amNNE 4 5------ 35.1-----
2024-02-24 04:23 amNNE 3 4------ 35.2-----
2024-02-24 04:13 amNNE 4 6------ 35.1-----
2024-02-24 04:03 amNNE 5 5------ 35.2-----
2024-02-24 03:53 am NE 5 6------ 35.4-----
2024-02-24 03:43 am NE 5 6------ 35.4-----
2024-02-24 03:33 am NE 4 5------ 35.8-----
2024-02-24 03:23 am NE 4 5------ 36.0-----
2024-02-24 03:13 am NE 3 4------ 36.1-----
2024-02-24 03:03 am NE 4 6------ 36.0-----
2024-02-24 02:53 am NE 3 5------ 36.3-----
2024-02-24 02:43 amNNE 3 5------ 36.3-----
2024-02-24 02:33 am NE 4 6------ 36.3-----
2024-02-24 02:24 am NE 5 7------ 36.3-----
2024-02-24 02:15 am NE 5 7------ 36.5-----
2024-02-24 02:05 amENE 3 7------ 36.9-----
2024-02-24 01:54 amENE 6 8------ 36.9-----
2024-02-24 01:44 am NE 3 9------ 37.4-----
2024-02-24 01:34 am E 3 10------ 37.8-----
2024-02-24 01:25 am E 3 11------ 37.8-----
2024-02-24 01:16 amSSW 3 7------ 37.6-----
2024-02-24 01:06 am S 5 15------ 37.6-----
2024-02-24 12:54 am S 4 11------ 37.9-----
2024-02-24 12:44 amSSW 4 12------ 38.1-----
2024-02-24 12:33 am S 4 8------ 38.1-----
2024-02-24 12:23 am S 3 7------ 38.3-----
2024-02-24 12:14 am S 3 6------ 38.3-----
2024-02-24 12:03 amSSE 3 7------ 38.3-----
2024-02-23 11:53 pmSSW 2 6------ 38.5-----
2024-02-23 11:43 pmSSW 3 8------ 38.3-----
2024-02-23 11:33 pm SE 3 7------ 38.3-----
2024-02-23 11:23 pmSSE 2 5------ 38.5-----
2024-02-23 11:14 pm SE 2 5------ 38.3-----
2024-02-23 11:04 pm S 3 5------ 38.3-----
2024-02-23 10:54 pm SW 2 5------ 38.3-----
2024-02-23 10:44 pmSSW 4 7------ 38.3-----
2024-02-23 10:34 pmSSW 5 9------ 38.7-----
2024-02-23 10:24 pm SW 6 9------ 38.8-----
2024-02-23 10:14 pmSSW 5 8------ 39.0-----
2024-02-23 10:05 pmSSW 6 11------ 39.4-----
2024-02-23 09:54 pm S 5 11------ 39.2-----
2024-02-23 09:45 pm N 2 3------ 38.8-----
2024-02-23 09:36 pmENE 3 4------ 38.7-----
2024-02-23 09:26 pmNNW 3 5------ 39.2-----
2024-02-23 09:16 pm NE 3 5------ 39.9-----
2024-02-23 09:06 pmSSW 4 7------ 40.5-----
2024-02-23 08:56 pmSSW 5 7------ 40.3-----
2024-02-23 08:46 pmSSE 3 7------ 39.0-----
2024-02-23 08:36 pmSSW 4 11------ 39.0-----
2024-02-23 08:28 pm NE 2 4------ 38.1-----
2024-02-23 08:19 pm NE 3 5------ 38.1-----
2024-02-23 08:09 pm NE 3 6------ 37.9-----
2024-02-23 07:57 pm N 2 5------ 38.8-----
2024-02-23 07:48 pm E 3 7------ 38.1-----
2024-02-23 07:39 pm NE 3 5------ 38.3-----
2024-02-23 07:28 pm NE 3 4------ 38.5-----
2024-02-23 07:19 pmENE 3 5------ 38.5-----
2024-02-23 07:09 pmNNE 3 5------ 38.7-----
2024-02-23 06:55 pmENE 2 3------ 39.0-----
2024-02-23 06:43 pmENE 2 4------ 39.0-----
2024-02-23 06:33 pmNNE 1 3------ 39.7-----
2024-02-23 06:23 pm E 2 4------ 39.9-----
2024-02-23 06:13 pm S 3 7------ 41.0-----
2024-02-23 06:03 pm S 5 8------ 41.0-----
2024-02-23 05:53 pm S 5 8------ 41.0-----
2024-02-23 05:43 pm S 4 7------ 41.2-----
2024-02-23 05:33 pm SW 4 6------ 41.4-----
2024-02-23 05:23 pm S 5 6------ 41.2-----
2024-02-23 05:13 pm S 6 8------ 41.2-----
2024-02-23 05:03 pm S 7 9------ 41.4-----
2024-02-23 04:53 pmSSW 7 10------ 41.7-----
2024-02-23 04:43 pmSSW 5 7------ 41.7-----
2024-02-23 04:33 pmSSW 4 6------ 41.7-----
2024-02-23 04:23 pm W 2 6------ 41.2-----
2024-02-23 04:13 pmSSW 2 4------ 41.2-----
2024-02-23 04:03 pm S 2 4------ 41.2-----
2024-02-23 03:53 pmSSW 2 3------ 41.5-----
2024-02-23 03:43 pmWSW 2 3------ 42.4-----
2024-02-23 03:33 pmWSW 3 4------ 42.8-----
2024-02-23 03:23 pm S 3 5------ 43.3-----
2024-02-23 03:13 pm SW 1 4------ 44.4-----
2024-02-23 02:53 pmSSW 3 6------ 43.3-----
2024-02-23 02:43 pmSSW 4 7------ 43.2-----
2024-02-23 02:34 pm SW 6 10------ 43.2-----
2024-02-23 02:24 pm SW 5 9------ 43.5-----
2024-02-23 02:15 pm S 3 9------ 43.5-----
2024-02-23 02:07 pmSSW 6 11------ 43.0-----
2024-02-23 01:55 pmSSW 6 12------ 42.8-----
2024-02-23 01:45 pmSSW 6 12------ 42.6-----
2024-02-23 01:36 pm SW 7 12------ 42.4-----
2024-02-23 01:26 pmSSW 8 13------ 41.9-----
2024-02-23 01:18 pmSSW 8 15------ 42.3-----
2024-02-23 01:06 pmSSW 7 15------ 42.3-----
2024-02-23 12:55 pmSSW 5 10------ 42.3-----
2024-02-23 12:44 pm SW 8 13------ 41.9-----
2024-02-23 12:33 pmSSW 7 13------ 41.9-----
2024-02-23 12:23 pm SW 8 14------ 41.7-----
2024-02-23 12:13 pm SW 8 12------ 41.7-----
2024-02-23 12:03 pm SW 8 11------ 41.9-----
2024-02-23 11:53 am SW 7 14------ 41.9-----
2024-02-23 11:43 am SW 8 13------ 41.7-----
2024-02-23 11:34 am SW 10 16------ 41.5-----
2024-02-23 11:24 am SW 9 14------ 41.5-----
2024-02-23 11:14 am SW 7 12------ 41.4-----
2024-02-23 11:05 am SW 7 12------ 41.0-----
2024-02-23 10:54 amSSW 7 13------ 41.2-----
2024-02-23 10:44 am SW 9 16------ 41.0-----
2024-02-23 10:34 amSSW 9 15------ 40.8-----
2024-02-23 10:25 amSSW 7 14------ 40.5-----
2024-02-23 10:15 amSSW 8 15------ 39.9-----
2024-02-23 10:05 amSSW 8 16------ 40.1-----
2024-02-23 09:55 am SW 8 15------ 40.5-----
2024-02-23 09:46 am S 3 9------ 40.5-----
2024-02-23 09:36 amSSE 3 7------ 40.3-----
2024-02-23 09:26 amSSE 3 8------ 40.1-----
2024-02-23 09:17 am S 4 11------ 40.1-----
2024-02-23 09:07 amSSW 9 21------ 40.3-----
2024-02-23 08:57 amSSW 9 18------ 40.1-----
2024-02-23 08:46 amSSW 7 12------ 39.7-----
2024-02-23 08:37 amSSW 5 9------ 39.6-----
2024-02-23 08:28 amSSW 6 10------ 39.7-----
2024-02-23 08:19 am SW 7 16------ 39.7-----
2024-02-23 08:09 amSSW 9 17------ 40.1-----
2024-02-23 07:58 am S 7 16------ 40.8-----